Flight Track Log - Related Links

Times and Time Zones

All times are in EDT time to prevent confusion due to time zone crossing. See the SLM462 flight status page for this flight to view local times or setup timezone preferences in your user account.

Time Position Orientation Groundspeed Altitude Reporting Facility
EDT Latitude Longitude Course Direction KTS MPH feet Rate Location/Type
Fri 05:59:17 PM 25.7983 -80.2722 114° Southeast 150 173 900  Level Miami Center
Fri 06:00:00 PM 25.7864 -80.2419 114° Southeast 159 183 2,500 1,964 Climbing Miami Center
Fri 06:01:07 PM 25.7567 -80.1719 115° Southeast 246 283 4,500 2,149 Climbing Miami Center
Fri 06:02:28 PM 25.7381 -80.0653 101° East 284 327 7,800 2,511 Climbing Miami Center
Fri 06:03:28 PM 25.7189 -79.9817 104° East 289 333 10,400 1,800 Climbing Miami Center
Fri 06:04:28 PM 25.6961 -79.8842 105° East 297 342 11,400 1,600 Climbing Miami Center
Fri 06:05:28 PM 25.6711 -79.7708 104° East 336 387 13,600 2,700 Climbing Miami Center
Fri 06:06:28 PM 25.6442 -79.6547 104° East 367 422 16,800 2,700 Climbing Miami Center
Fri 06:07:28 PM 25.6169 -79.5367 104° East 379 436 19,000 2,100 Climbing Miami Center
Fri 06:08:28 PM 25.5689 -79.4250 115° Southeast 390 449 21,000 1,950 Climbing Miami Center
Fri 06:09:28 PM 25.4911 -79.3244 131° Southeast 406 467 22,900 1,700 Climbing Miami Center
Fri 06:10:28 PM 25.4156 -79.2217 129° Southeast 422 486 24,400 1,550 Climbing Miami Center
Fri 06:11:28 PM 25.3339 -79.1119 129° Southeast 436 502 26,000 1,800 Climbing Miami Center
Fri 06:12:28 PM 25.2517 -79.0025 130° Southeast 449 517 28,000 1,950 Climbing Miami Center
Fri 06:13:28 PM 25.1778 -78.9117 132° Southeast 454 522 29,900 1,650 Climbing Miami Center
Fri 06:14:28 PM 25.0936 -78.8069 132° Southeast 449 517 31,300 1,250 Climbing Miami Center
Fri 06:15:28 PM 25.0156 -78.6933 127° Southeast 454 522 32,400 1,100 Climbing Miami Center
Fri 06:16:28 PM 24.9333 -78.5844 130° Southeast 466 536 33,500 1,000 Climbing Miami Center
Fri 06:17:28 PM 24.8447 -78.4711 131° Southeast 471 542 34,400 750 Climbing Miami Center
Fri 06:18:28 PM 24.7622 -78.3603 129° Southeast 476 548 35,000 300 Climbing Miami Center
Fri 06:19:28 PM 24.6756 -78.2469 130° Southeast 476 548 35,000  Level Miami Center
Fri 06:20:28 PM 24.5889 -78.1364 131° Southeast 476 548 35,000  Level Miami Center
Fri 06:21:28 PM 24.5061 -78.0258 129° Southeast 476 548 35,000  Level Miami Center
Fri 06:22:28 PM 24.4214 -77.9156 130° Southeast 476 548 35,000  Level Miami Center
Fri 06:23:28 PM 24.3364 -77.8078 131° Southeast 476 548 35,000  Level Miami Center
Fri 06:24:28 PM 24.2597 -77.7022 129° Southeast 470 541 35,000  Level Miami Center
Fri 06:25:28 PM 24.1786 -77.5969 130° Southeast 457 526 35,000  Level Miami Center
Fri 06:26:28 PM 24.0978 -77.4939 131° Southeast 451 519 35,000  Level Miami Center
Fri 06:27:28 PM 24.0208 -77.3911 129° Southeast 446 513 35,000  Level Miami Center
Fri 06:28:28 PM 23.9394 -77.2931 132° Southeast 439 505 35,000  Level Miami Center
Fri 06:29:28 PM 23.8647 -77.1883 128° Southeast 439 505 35,000  Level Miami Center
Fri 06:30:28 PM 23.7769 -77.0814 132° Southeast 434 499 35,000  Level Miami Center
Fri 06:31:28 PM 23.6997 -76.9814 130° Southeast 434 499 35,000  Level Miami Center
Fri 06:32:28 PM 23.6372 -76.9019 131° Southeast 434 499 35,000  Level Miami Center
Fri 06:33:28 PM 23.5453 -76.7819 130° Southeast 439 505 35,000  Level Miami Center
Fri 06:34:28 PM 23.4742 -76.6936 131° Southeast 434 499 35,000  Level Miami Center
Fri 06:35:28 PM 23.3986 -76.5964 130° Southeast 434 499 35,000  Level Miami Center
Fri 06:36:28 PM 23.3086 -76.4833 131° Southeast 440 506 35,000  Level Miami Center
Fri 06:37:28 PM 23.2308 -76.3864 131° Southeast 435 501 35,000  Level Miami Center
Fri 06:38:28 PM 23.1533 -76.2872 130° Southeast 435 501 35,000  Level Miami Center
Fri 06:39:28 PM 23.0736 -76.1858 131° Southeast 435 501 35,000  Level Miami Center
Fri 06:40:28 PM 22.9936 -76.0872 131° Southeast 435 501 35,000  Level Miami Center
Fri 06:41:28 PM 22.9158 -75.9861 130° Southeast 435 501 35,000  Level Miami Center
Fri 06:42:28 PM 22.8358 -75.8853 131° Southeast 435 501 35,000  Level Miami Center
Fri 06:43:28 PM 22.7556 -75.7844 131° Southeast 435 501 35,000  Level Miami Center
Fri 06:44:28 PM 22.6756 -75.6839 131° Southeast 440 506 35,000  Level Miami Center
Fri 06:45:28 PM 22.5931 -75.5833 132° Southeast 440 506 35,000  Level Miami Center
Fri 06:46:28 PM 22.5128 -75.4828 131° Southeast 440 506 35,000  Level Miami Center
Fri 06:47:28 PM 22.4325 -75.3825 131° Southeast 440 506 35,000  Level Miami Center
Fri 06:48:28 PM 22.3522 -75.2825 131° Southeast 440 506 35,000  Level Miami Center
Fri 06:49:28 PM 22.2717 -75.1803 130° Southeast 440 506 35,000  Level Miami Center
Fri 06:50:28 PM 22.1892 -75.0825 132° Southeast 440 506 35,000  Level Miami Center
Fri 06:51:28 PM 22.0983 -74.9942 138° Southeast 440 506 35,000  Level Miami Center
Fri 06:52:28 PM 22.0053 -74.9058 139° Southeast 435 501 35,000  Level Miami Center
Fri 06:53:28 PM 21.9100 -74.8156 139° Southeast 446 513 35,000  Level Miami Center
Fri 06:54:28 PM 21.8150 -74.7319 141° Southeast 446 513 35,000 -50 Level Miami Center
Fri 06:55:28 PM 21.7239 -74.6442 138° Southeast 446 513 34,900  Descending Miami Center
Fri 06:56:28 PM 21.6308 -74.5586 139° Southeast 441 507 35,000 50 Climbing Miami Center
Fri 06:57:28 PM 21.5333 -74.4711 140° Southeast 441 507 35,000  Level Miami Center
Fri 06:58:28 PM 21.4403 -74.3856 139° Southeast 441 507 35,000  Level Miami Center
Fri 06:59:28 PM 21.3428 -74.2983 140° Southeast 441 507 35,000  Level Miami Center
Fri 07:00:28 PM 21.2514 -74.2133 139° Southeast 446 513 35,000  Level Miami Center
Fri 07:01:28 PM 21.1539 -74.1261 140° Southeast 446 513 35,000  Level Miami Center
Fri 07:02:28 PM 21.0583 -74.0392 140° Southeast 446 513 35,000  Level Miami Center
Fri 07:03:28 PM 20.9628 -73.9500 139° Southeast 451 519 35,000  Level Miami Center
Fri 07:04:28 PM 20.8672 -73.8656 140° Southeast 451 519 35,000  Level Miami Center
Fri 07:05:28 PM 20.7717 -73.7789 140° Southeast 451 519 35,000  Level Miami Center
Fri 07:06:28 PM 20.6761 -73.6944 140° Southeast 451 519 35,000  Level Miami Center
Fri 07:07:28 PM 20.5847 -73.6103 139° Southeast 451 519 35,000 -50 Level Miami Center
Fri 07:08:28 PM 20.4869 -73.5239 140° Southeast 451 519 34,900  Descending Miami Center
Fri 07:09:28 PM 20.3911 -73.4378 140° Southeast 451 519 35,000 50 Climbing Miami Center
Fri 07:10:28 PM 20.2933 -73.3539 141° Southeast 451 519 35,000  Level Miami Center
Fri 07:11:28 PM 20.1994 -73.2681 139° Southeast 451 519 35,000 -50 Level Miami Center
Fri 07:12:28 PM 20.0956 -73.1911 145° Southeast 451 519 34,900 -100 Descending Miami Center
Fri 07:14:00 PM 19.9404 -73.1009 151° Southeast  Level FlightAware Approximate
Fri 07:21:00 PM 19.2254 -72.7033 153° Southeast  Level FlightAware Approximate
Fri 07:22:00 PM 19.1229 -72.6473 153° Southeast  Level FlightAware Approximate
Fri 07:23:00 PM 19.0207 -72.5909 152° Southeast  Level FlightAware Approximate
Fri 07:24:00 PM 18.9188 -72.5337 152° Southeast  Level FlightAware Approximate
Fri 07:25:00 PM 18.8169 -72.4767 152° Southeast  Level FlightAware Approximate
Fri 07:26:00 PM 18.7150 -72.4197 152° Southeast  Level FlightAware Approximate
Fri 07:27:00 PM 18.6128 -72.3633 153° Southeast  Level FlightAware Approximate
Fri 07:28:00 PM 18.5101 -72.3080 153° Southeast  Level FlightAware Approximate
Fri 07:29:00 PM 18.4088 -72.2503 148° Southeast  Level FlightAware Approximate
Fri 07:30:00 PM 18.3113 -72.1852 148° Southeast  Level FlightAware Approximate
Fri 07:31:00 PM 18.2139 -72.1203 148° Southeast  Level FlightAware Approximate
Fri 07:32:00 PM 18.1159 -72.0565 151° Southeast  Level FlightAware Approximate
Fri 07:33:00 PM 18.0150 -71.9976 151° Southeast  Level FlightAware Approximate
Fri 07:34:00 PM 17.9146 -71.9381 149° Southeast  Level FlightAware Approximate
Fri 07:35:00 PM 17.8160 -71.8752 149° Southeast  Level FlightAware Approximate
Fri 07:36:00 PM 17.7174 -71.8125 149° Southeast  Level FlightAware Approximate
Fri 07:37:00 PM 17.6188 -71.7498 149° Southeast  Level FlightAware Approximate
Fri 07:38:00 PM 17.5229 -71.6835 150° Southeast  Level FlightAware Approximate
Fri 07:39:00 PM 17.4232 -71.6227 150° Southeast  Level FlightAware Approximate
Fri 07:40:00 PM 17.3235 -71.5620 150° Southeast  Level FlightAware Approximate
Fri 07:41:00 PM 17.2238 -71.5014 150° Southeast  Level FlightAware Approximate
Fri 07:42:00 PM 17.1244 -71.4402 149° Southeast  Level FlightAware Approximate
Fri 07:43:00 PM 17.0254 -71.3783 149° Southeast  Level FlightAware Approximate
Fri 07:44:00 PM 16.9264 -71.3165 149° Southeast  Level FlightAware Approximate
Fri 07:45:00 PM 16.8271 -71.2552 150° Southeast  Level FlightAware Approximate
Fri 07:46:00 PM 16.7277 -71.1942 150° Southeast  Level FlightAware Approximate
Fri 07:47:00 PM 16.6282 -71.1333 150° Southeast  Level FlightAware Approximate
Fri 07:48:00 PM 16.5288 -71.0724 150° Southeast  Level FlightAware Approximate
Fri 07:49:00 PM 16.4293 -71.0116 150° Southeast  Level FlightAware Approximate
Fri 07:50:00 PM 16.3298 -70.9508 150° Southeast  Level FlightAware Approximate
Fri 07:51:00 PM 16.2303 -70.8902 150° Southeast  Level FlightAware Approximate
Fri 07:52:00 PM 16.1307 -70.8295 150° Southeast  Level FlightAware Approximate
Fri 07:53:00 PM 16.0312 -70.7690 150° Southeast  Level FlightAware Approximate
Fri 07:54:00 PM 15.9280 -70.7158 155° Southeast  Level FlightAware Approximate
Fri 07:55:00 PM 15.8230 -70.6660 155° Southeast  Level FlightAware Approximate
Fri 07:56:00 PM 15.7181 -70.6163 155° Southeast  Level FlightAware Approximate
Fri 07:57:00 PM 15.6132 -70.5666 155° Southeast  Level FlightAware Approximate
Fri 07:58:00 PM 15.5083 -70.5170 156° South  Level FlightAware Approximate
Fri 07:59:00 PM 15.4033 -70.4674 156° South  Level FlightAware Approximate
Fri 08:00:00 PM 15.2984 -70.4179 156° South  Level FlightAware Approximate
Fri 08:01:00 PM 15.1934 -70.3685 156° South  Level FlightAware Approximate
Fri 08:02:00 PM 15.0884 -70.3191 156° South  Level FlightAware Approximate
Fri 08:03:00 PM 14.9832 -70.2701 156° South  Level FlightAware Approximate
Fri 08:04:00 PM 14.8780 -70.2212 156° South  Level FlightAware Approximate
Fri 08:05:00 PM 14.7728 -70.1724 156° South  Level FlightAware Approximate
Fri 08:06:00 PM 14.6676 -70.1236 156° South  Level FlightAware Approximate
Fri 08:07:00 PM 14.5612 -70.0778 159° South  Level FlightAware Approximate
Fri 08:08:00 PM 14.4549 -70.0318 157° South  Level FlightAware Approximate
Fri 08:09:00 PM 14.3459 -70.0000 180° South  Level FlightAware Approximate
Fri 08:10:00 PM 14.2306 -70.0000 180° South  Level FlightAware Approximate
Fri 08:11:00 PM 14.1154 -69.9968 175° South  Level FlightAware Approximate
Fri 08:12:00 PM 14.0005 -69.9864 175° South  Level FlightAware Approximate
Fri 08:13:00 PM 13.8853 -69.9833 180° South  Level FlightAware Approximate
Fri 08:14:00 PM 13.7700 -69.9833 180° South  Level FlightAware Approximate
Fri 08:15:00 PM 13.6547 -69.9833 180° South  Level FlightAware Approximate
Fri 08:16:00 PM 13.5395 -69.9791 178° South  Level FlightAware Approximate
Fri 08:17:00 PM 13.4242 -69.9746 178° South  Level FlightAware Approximate
Fri 08:18:00 PM 13.3090 -69.9702 178° South  Level FlightAware Approximate
Fri 08:19:00 PM 13.1939 -69.9644 174° South  Level FlightAware Approximate
Fri 08:20:00 PM 13.0791 -69.9529 174° South  Level FlightAware Approximate
Fri 08:21:00 PM 12.9639 -69.9500 180° South  Level FlightAware Approximate
Fri 08:22:00 PM 12.8486 -69.9500 180° South  Level FlightAware Approximate
Fri 08:23:00 PM 12.7333 -69.9500 180° South  Level FlightAware Approximate
Fri 08:24:00 PM 12.6246 -69.9333 180° South  Level FlightAware Approximate
Fri 08:25:00 PM 12.5093 -69.9333 180° South  Level FlightAware Approximate
Fri 08:26:00 PM 12.5000 -70.0167 270° West  Level FlightAware Approximate
Fri 08:27:00 PM 12.5014 -70.0152 270° West  Level Estimated
Fri 08:28:00 PM 12.5000 -70.0167 270° West  Level FlightAware Approximate
Fri 08:29:00 PM 12.5014 -70.0152 270° West  Level Estimated
Fri 08:30:00 PM 12.5000 -70.0167 270° West  Level FlightAware Approximate
Fri 08:31:00 PM 12.5014 -70.0152 270° West  Level Estimated
Fri 08:32:00 PM 12.5000 -70.0167 270° West  Level FlightAware Approximate
Fri 08:33:00 PM 12.5014 -70.0152 270° West  Level Estimated
Fri 08:34:00 PM 12.5000 -70.0167 270° West  Level FlightAware Approximate
Fri 08:35:00 PM 12.5014 -70.0152 270° West  Level Estimated
Fri 08:36:00 PM 12.5000 -70.0167 270° West  Level FlightAware Approximate
Fri 08:37:00 PM 12.5014 -70.0152 270° West  Level Estimated
Fri 08:38:00 PM 12.5000 -70.0167 270° West  Level FlightAware Approximate
Fri 08:39:00 PM 12.5014 -70.0152 270° West  Level Estimated
Fri 08:40:00 PM 12.5000 -70.0167 270° West  Level FlightAware Approximate
Fri 08:41:00 PM 12.5014 -70.0152 270° West  Level Estimated
Fri 08:42:00 PM 12.5000 -70.0167 270° West  Level FlightAware Approximate
Fri 08:43:00 PM 12.5014 -70.0152 270° West  Level Estimated
Fri 08:44:00 PM 12.5000 -70.0167 270° West  Level FlightAware Approximate

Login

Don't have an account? Register now (free) for customized features, flight alerts, and more!